Time;durP1;ratioP1;P1;durP2;ratioP2;P2;SDS_P1;SDS_P2;PMS_P1;PMS_P2;Temp;Humidity;BMP_temperature;BMP_pressure;BME280_temperature;BME280_humidity;BME280_pressure;Samples;Min_cycle;Max_cycle;Signal;HPM_P1;HPM_P2
2023/05/22 00:00:37;;;;;;;4.40;4.00;;;15.50;97.30;;;;;;5028354;28;20049;-75
2023/05/22 00:03:04;;;;;;;4.28;3.88;;;15.40;97.50;;;;;;5018298;28;20024;-76
2023/05/22 00:05:33;;;;;;;4.20;3.80;;;15.40;97.80;;;;;;5036701;28;20490;-76
2023/05/22 00:07:58;;;;;;;3.72;3.42;;;15.30;98.10;;;;;;5036682;28;20437;-76
2023/05/22 00:10:24;;;;;;;3.67;3.30;;;15.30;98.30;;;;;;5054484;28;20033;-76
2023/05/22 00:12:50;;;;;;;3.97;3.58;;;15.30;98.50;;;;;;5056783;28;20029;-76
2023/05/22 00:15:16;;;;;;;3.38;3.08;;;15.20;98.60;;;;;;5056821;28;20044;-76
2023/05/22 00:17:41;;;;;;;3.60;3.25;;;15.20;98.70;;;;;;5051586;28;20032;-76
2023/05/22 00:20:09;;;;;;;3.60;3.30;;;15.20;98.90;;;;;;5037061;28;20104;-75
2023/05/22 00:22:35;;;;;;;4.38;3.97;;;15.10;99.00;;;;;;5019168;28;20324;-75
2023/05/22 00:25:05;;;;;;;3.70;3.40;;;15.10;99.20;;;;;;5018486;28;20036;-76
2023/05/22 00:27:32;;;;;;;3.10;2.90;;;15.00;99.40;;;;;;5037138;28;20424;-76
2023/05/22 00:29:58;;;;;;;2.78;2.58;;;15.00;99.50;;;;;;5045516;28;20041;-76
2023/05/22 00:32:27;;;;;;;3.20;2.83;;;15.00;99.60;;;;;;5056667;28;20454;-77
2023/05/22 00:34:53;;;;;;;2.63;2.42;;;15.00;99.80;;;;;;5056202;28;20112;-75
2023/05/22 00:37:19;;;;;;;3.08;2.85;;;15.00;99.90;;;;;;5056197;28;20063;-75
2023/05/22 00:39:45;;;;;;;2.78;2.58;;;15.00;99.90;;;;;;5051551;28;20076;-76
2023/05/22 00:42:11;;;;;;;2.75;2.55;;;14.90;99.90;;;;;;5036473;28;20090;-76
2023/05/22 00:44:37;;;;;;;2.42;2.22;;;15.00;99.90;;;;;;5035665;28;20160;-76
2023/05/22 00:47:03;;;;;;;2.58;2.38;;;14.90;99.90;;;;;;5036230;28;20478;-76
2023/05/22 00:49:31;;;;;;;2.38;2.17;;;14.90;99.90;;;;;;5036098;28;20102;-78
2023/05/22 00:51:57;;;;;;;2.90;2.70;;;14.80;99.90;;;;;;5037069;28;20116;-77
2023/05/22 00:54:23;;;;;;;3.28;2.63;;;14.80;99.90;;;;;;5026933;28;20013;-76
2023/05/22 00:56:49;;;;;;;2.78;2.58;;;14.70;99.90;;;;;;5036181;28;20079;-76
2023/05/22 00:59:16;;;;;;;2.88;2.60;;;14.70;99.90;;;;;;5035580;28;20025;-75
2023/05/22 01:01:42;;;;;;;2.58;2.38;;;14.70;99.90;;;;;;5051519;28;20037;-77
2023/05/22 01:04:10;;;;;;;2.55;2.13;;;14.60;99.90;;;;;;5055567;28;20047;-76
2023/05/22 01:06:36;;;;;;;2.42;2.22;;;14.60;99.90;;;;;;5055881;28;20032;-75
2023/05/22 01:09:03;;;;;;;2.60;2.40;;;14.60;99.90;;;;;;5055440;28;20025;-76
2023/05/22 01:12:03;;;;;;;2.40;2.20;;;14.50;99.90;;;;;;5044938;28;20033;-76
2023/05/22 01:14:50;;;;;;;2.00;1.90;;;14.50;99.90;;;;;;4991865;28;20433;-76
2023/05/22 01:17:36;;;;;;;2.40;2.20;;;14.50;99.90;;;;;;5034029;28;20092;-76
2023/05/22 01:20:15;;;;;;;2.42;2.22;;;14.40;99.90;;;;;;5034685;28;20105;-76
2023/05/22 01:23:01;;;;;;;2.55;2.20;;;14.50;99.90;;;;;;5052494;28;20033;-75
2023/05/22 01:25:55;;;;;;;2.03;1.92;;;14.40;99.90;;;;;;5055046;28;20025;-76
2023/05/22 01:28:39;;;;;;;2.25;2.15;;;14.40;99.90;;;;;;5026501;28;20093;-76
2023/05/22 01:31:14;;;;;;;2.28;2.08;;;14.40;99.90;;;;;;5036949;28;20566;-77
2023/05/22 01:33:47;;;;;;;2.38;2.20;;;14.40;99.90;;;;;;5049583;28;20430;-76
2023/05/22 01:36:21;;;;;;;1.85;1.75;;;14.40;99.90;;;;;;5035447;28;20024;-76
2023/05/22 01:38:47;;;;;;;2.20;2.10;;;14.40;99.90;;;;;;5035396;28;20052;-75
2023/05/22 01:41:13;;;;;;;2.30;2.10;;;14.30;99.90;;;;;;5035147;28;20041;-77
2023/05/22 01:43:40;;;;;;;2.30;2.10;;;14.30;99.90;;;;;;5054512;28;20044;-76
2023/05/22 01:46:05;;;;;;;2.30;2.15;;;14.30;99.90;;;;;;5055039;28;20032;-77
2023/05/22 01:48:32;;;;;;;2.55;2.35;;;14.30;99.90;;;;;;5042638;28;20030;-77
2023/05/22 01:51:06;;;;;;;2.50;2.33;;;14.20;99.90;;;;;;5044409;28;20049;-76
2023/05/22 01:53:44;;;;;;;2.25;2.15;;;14.20;99.90;;;;;;5054967;28;20064;-76
2023/05/22 01:56:18;;;;;;;3.05;2.85;;;14.20;99.90;;;;;;5036751;28;20032;-77
2023/05/22 01:58:58;;;;;;;2.65;2.45;;;14.10;99.90;;;;;;5054757;28;20029;-75
2023/05/22 02:01:26;;;;;;;2.55;2.35;;;14.10;99.90;;;;;;5042850;28;20029;-76
2023/05/22 02:03:55;;;;;;;2.88;2.60;;;14.10;99.90;;;;;;5034806;28;20112;-76
2023/05/22 02:06:23;;;;;;;3.28;2.97;;;14.10;99.90;;;;;;5033660;28;20033;-76
2023/05/22 02:08:51;;;;;;;3.15;2.80;;;14.10;99.90;;;;;;5033866;28;20049;-77
2023/05/22 02:11:18;;;;;;;3.28;3.05;;;14.10;99.90;;;;;;5036392;28;20014;-77
2023/05/22 02:13:44;;;;;;;2.88;2.67;;;14.00;99.90;;;;;;5035298;28;20022;-76
2023/05/22 02:16:10;;;;;;;2.58;2.38;;;14.10;99.90;;;;;;5034035;28;20032;-77
2023/05/22 02:18:36;;;;;;;2.60;2.40;;;14.10;99.90;;;;;;5034472;28;20022;-75
2023/05/22 02:21:07;;;;;;;2.38;2.17;;;14.10;99.90;;;;;;5017375;28;20025;-75
2023/05/22 02:23:33;;;;;;;2.95;2.65;;;14.00;99.90;;;;;;5035458;28;20029;-75
2023/05/22 02:25:59;;;;;;;2.50;2.30;;;14.00;99.90;;;;;;5033228;28;20668;-76
2023/05/22 02:28:24;;;;;;;3.45;2.78;;;14.00;99.90;;;;;;5016961;28;20087;-76
2023/05/22 02:30:50;;;;;;;3.95;3.55;;;14.00;99.90;;;;;;5033964;28;20037;-76
2023/05/22 02:33:18;;;;;;;3.78;3.47;;;13.90;99.90;;;;;;5038003;28;20033;-75
2023/05/22 02:35:44;;;;;;;3.67;3.35;;;13.80;99.90;;;;;;5050819;28;20029;-75
2023/05/22 02:38:11;;;;;;;4.22;3.83;;;13.80;99.90;;;;;;5053630;28;20029;-75
2023/05/22 02:40:36;;;;;;;4.47;4.07;;;13.80;99.90;;;;;;5053660;28;20049;-76
2023/05/22 02:43:02;;;;;;;4.82;3.95;;;13.70;99.90;;;;;;5035738;28;20025;-76
2023/05/22 02:45:28;;;;;;;4.82;4.38;;;13.70;99.90;;;;;;5053206;28;20044;-75
2023/05/22 02:47:53;;;;;;;4.28;3.88;;;13.70;99.90;;;;;;5046035;28;20021;-76
2023/05/22 02:50:19;;;;;;;4.32;3.92;;;13.70;99.90;;;;;;5033164;28;20083;-75
2023/05/22 02:52:45;;;;;;;4.22;3.83;;;13.70;99.90;;;;;;5041916;28;20072;-76
2023/05/22 02:55:10;;;;;;;4.22;3.83;;;13.60;99.90;;;;;;5038954;28;20063;-76
2023/05/22 02:57:36;;;;;;;4.75;4.30;;;13.60;99.90;;;;;;5033727;28;20022;-76
2023/05/22 03:00:04;;;;;;;3.45;3.15;;;13.60;99.90;;;;;;5034498;28;20036;-75
2023/05/22 03:02:31;;;;;;;3.28;3.00;;;13.60;99.90;;;;;;5038795;28;20040;-75
2023/05/22 03:05:00;;;;;;;3.80;3.33;;;13.60;99.90;;;;;;5053788;28;20033;-76
2023/05/22 03:07:28;;;;;;;3.25;3.05;;;13.60;99.90;;;;;;5055239;28;20029;-76
2023/05/22 03:09:54;;;;;;;3.50;3.20;;;13.60;99.90;;;;;;5036600;28;20033;-76
2023/05/22 03:12:20;;;;;;;3.58;3.22;;;13.60;99.90;;;;;;5035364;28;20043;-76
2023/05/22 03:14:45;;;;;;;3.45;2.97;;;13.50;99.90;;;;;;5034791;28;20034;-74
2023/05/22 03:17:11;;;;;;;3.13;2.92;;;13.50;99.90;;;;;;5037207;28;20405;-73
2023/05/22 03:19:37;;;;;;;3.30;3.00;;;13.60;99.90;;;;;;5030943;28;20026;-75
2023/05/22 03:22:03;;;;;;;3.03;2.55;;;13.60;99.90;;;;;;5021413;28;20362;-75
2023/05/22 03:24:28;;;;;;;2.70;2.50;;;13.60;99.90;;;;;;5033715;28;20037;-74
2023/05/22 03:26:54;;;;;;;3.42;3.13;;;13.60;99.90;;;;;;5038461;28;20026;-73
2023/05/22 03:29:20;;;;;;;3.00;2.78;;;13.50;99.90;;;;;;5049160;28;20095;-74
2023/05/22 03:31:46;;;;;;;3.20;2.78;;;13.50;99.90;;;;;;5041545;28;20076;-74
2023/05/22 03:34:11;;;;;;;4.28;2.90;;;13.50;99.90;;;;;;5046105;28;20063;-75
2023/05/22 03:36:37;;;;;;;3.00;2.80;;;13.50;99.90;;;;;;5054979;28;20055;-73
2023/05/22 03:39:03;;;;;;;3.55;3.03;;;13.50;99.90;;;;;;5052887;28;20074;-74
2023/05/22 03:41:29;;;;;;;4.03;3.63;;;13.50;99.90;;;;;;5053281;28;20047;-76
2023/05/22 03:43:56;;;;;;;3.95;3.55;;;13.50;99.80;;;;;;5048495;28;20122;-76
2023/05/22 03:46:21;;;;;;;3.60;3.30;;;13.40;99.70;;;;;;5015230;28;20033;-76
2023/05/22 03:48:47;;;;;;;3.72;3.42;;;13.40;99.70;;;;;;5032854;28;20051;-76
2023/05/22 03:51:13;;;;;;;3.58;3.28;;;13.40;99.70;;;;;;5033007;28;20029;-74
2023/05/22 03:53:38;;;;;;;3.40;3.10;;;13.40;99.70;;;;;;5033030;28;20025;-75
2023/05/22 03:56:04;;;;;;;2.95;2.65;;;13.50;99.60;;;;;;5051672;28;20025;-75
2023/05/22 03:58:30;;;;;;;2.90;2.70;;;13.50;99.50;;;;;;5052985;28;20493;-74
2023/05/22 04:00:59;;;;;;;3.28;2.53;;;13.50;99.40;;;;;;5046835;28;20029;-76
2023/05/22 04:03:25;;;;;;;2.42;2.22;;;13.60;99.30;;;;;;5033235;28;20036;-75
2023/05/22 04:05:51;;;;;;;2.63;2.28;;;13.70;99.10;;;;;;5033066;28;20083;-75
2023/05/22 04:08:17;;;;;;;2.65;2.45;;;13.70;98.90;;;;;;5033324;28;20433;-76
2023/05/22 04:10:45;;;;;;;2.50;2.30;;;13.70;98.70;;;;;;5031726;28;20045;-76
2023/05/22 04:13:11;;;;;;;2.53;2.33;;;13.80;98.60;;;;;;5051081;28;20131;-75
2023/05/22 04:15:40;;;;;;;2.72;2.50;;;13.80;98.50;;;;;;5051307;28;20075;-76
2023/05/22 04:18:06;;;;;;;2.50;2.30;;;13.80;98.40;;;;;;5042145;28;20025;-76
2023/05/22 04:20:32;;;;;;;2.55;2.35;;;13.90;98.40;;;;;;5031370;28;20048;-76
2023/05/22 04:22:58;;;;;;;2.60;2.40;;;13.90;98.30;;;;;;5032787;28;20036;-76
2023/05/22 04:25:23;;;;;;;3.70;3.25;;;13.90;98.00;;;;;;5031815;28;20041;-76
2023/05/22 04:27:49;;;;;;;2.70;2.50;;;14.00;97.90;;;;;;5032272;28;20021;-75
2023/05/22 04:30:15;;;;;;;3.17;2.55;;;14.00;98.00;;;;;;5014480;28;20032;-75
2023/05/22 04:32:42;;;;;;;3.03;2.72;;;14.10;97.80;;;;;;5042571;28;20091;-75
2023/05/22 04:35:08;;;;;;;2.67;2.45;;;14.10;97.70;;;;;;5051863;28;20156;-74
2023/05/22 04:37:35;;;;;;;2.80;2.60;;;14.30;97.50;;;;;;5052136;28;20013;-74
2023/05/22 04:40:06;;;;;;;2.42;2.22;;;14.30;97.30;;;;;;5051866;28;20037;-74
2023/05/22 04:42:33;;;;;;;2.40;2.20;;;14.40;97.10;;;;;;5047499;28;20028;-75
2023/05/22 04:44:59;;;;;;;2.00;1.90;;;14.50;96.90;;;;;;5032098;28;20030;-75
2023/05/22 04:47:27;;;;;;;2.42;2.22;;;14.60;96.60;;;;;;5033056;28;20119;-75
2023/05/22 04:49:53;;;;;;;2.30;2.10;;;14.70;96.30;;;;;;5036073;28;20075;-75
2023/05/22 04:52:20;;;;;;;2.47;2.28;;;14.80;96.00;;;;;;5036613;28;20060;-75
2023/05/22 04:54:45;;;;;;;2.30;2.17;;;14.90;95.50;;;;;;5036096;28;21203;-75
2023/05/22 04:57:11;;;;;;;2.35;2.15;;;14.90;95.00;;;;;;5049158;28;20052;-75
2023/05/22 04:59:37;;;;;;;2.67;2.47;;;15.00;94.80;;;;;;5055832;28;20052;-73
2023/05/22 05:02:04;;;;;;;2.78;2.42;;;15.10;94.40;;;;;;5056313;28;20033;-73
2023/05/22 05:04:30;;;;;;;3.20;2.90;;;15.20;94.30;;;;;;5038914;28;20083;-74
2023/05/22 05:06:56;;;;;;;2.50;2.30;;;15.30;94.10;;;;;;5036086;28;20024;-75
2023/05/22 05:09:22;;;;;;;2.75;2.55;;;15.80;94.40;;;;;;5036343;28;20026;-75
2023/05/22 05:11:49;;;;;;;2.20;2.00;;;17.20;93.60;;;;;;5036451;28;20025;-75
2023/05/22 05:14:15;;;;;;;2.15;2.05;;;19.30;90.30;;;;;;5037124;28;20021;-74
2023/05/22 05:16:41;;;;;;;2.42;2.22;;;21.00;80.80;;;;;;5033074;28;20021;-76
2023/05/22 05:19:06;;;;;;;1.95;1.85;;;21.60;75.20;;;;;;5017597;28;20018;-75
2023/05/22 05:21:32;;;;;;;1.85;1.63;;;22.30;71.40;;;;;;5036187;28;20088;-76
2023/05/22 05:23:58;;;;;;;1.50;1.40;;;22.80;69.50;;;;;;5036410;28;20112;-76
2023/05/22 05:26:23;;;;;;;1.40;1.30;;;23.00;65.50;;;;;;5036592;28;20112;-75
2023/05/22 05:28:50;;;;;;;1.75;1.65;;;22.20;65.10;;;;;;5036057;28;20033;-75
2023/05/22 05:31:17;;;;;;;1.45;1.35;;;21.70;67.20;;;;;;5037031;28;20036;-76
2023/05/22 05:33:43;;;;;;;1.50;1.40;;;22.60;67.60;;;;;;5037434;28;20030;-75
2023/05/22 05:36:08;;;;;;;1.35;1.25;;;24.10;64.90;;;;;;5036284;28;20036;-75
2023/05/22 05:38:34;;;;;;;1.30;1.30;;;25.50;60.30;;;;;;5037445;28;20065;-76
2023/05/22 05:41:00;;;;;;;1.33;1.30;;;;;;;;;;5036069;28;20053;-75
2023/05/22 05:43:26;;;;;;;1.60;1.50;;;27.40;55.40;;;;;;5036949;28;20040;-74
2023/05/22 05:45:52;;;;;;;1.45;1.20;;;28.20;53.20;;;;;;5050757;28;20025;-76
2023/05/22 05:48:17;;;;;;;1.23;1.23;;;28.70;51.70;;;;;;5035962;28;20095;-76
2023/05/22 05:50:43;;;;;;;1.70;1.60;;;29.20;50.20;;;;;;5028350;28;20478;-76
2023/05/22 05:53:09;;;;;;;1.20;1.20;;;29.50;49.20;;;;;;5032625;28;20021;-76
2023/05/22 05:55:34;;;;;;;1.23;1.23;;;29.80;48.60;;;;;;5043617;28;20482;-75
2023/05/22 05:58:00;;;;;;;1.30;1.30;;;29.80;47.90;;;;;;5054798;28;20070;-74
2023/05/22 06:00:26;;;;;;;1.40;1.40;;;30.00;47.50;;;;;;5053055;28;20025;-76
2023/05/22 06:02:52;;;;;;;1.40;1.40;;;30.30;47.30;;;;;;5054377;28;20060;-76
2023/05/22 06:05:18;;;;;;;1.23;1.23;;;30.60;46.70;;;;;;5049046;28;20068;-75
2023/05/22 06:07:44;;;;;;;1.40;1.40;;;30.90;46.50;;;;;;5034905;28;20065;-76
2023/05/22 06:10:11;;;;;;;1.80;1.70;;;31.20;46.10;;;;;;5034502;28;20386;-74
2023/05/22 06:12:37;;;;;;;1.70;1.60;;;31.40;44.90;;;;;;5016806;28;20395;-76
2023/05/22 06:15:04;;;;;;;1.58;1.48;;;31.50;45.10;;;;;;5033818;28;20133;-76
2023/05/22 06:17:30;;;;;;;1.50;1.50;;;31.60;44.70;;;;;;5049162;28;20108;-76
2023/05/22 06:19:56;;;;;;;1.77;1.67;;;31.70;44.80;;;;;;5033365;28;20053;-76
2023/05/22 06:22:24;;;;;;;1.80;1.70;;;32.00;44.20;;;;;;5034340;28;20037;-75
2023/05/22 06:24:53;;;;;;;2.45;2.35;;;32.10;43.40;;;;;;5033713;28;20052;-76
2023/05/22 06:27:21;;;;;;;2.50;2.30;;;31.90;43.80;;;;;;5034264;28;20029;-77
2023/05/22 06:29:47;;;;;;;2.10;2.00;;;31.90;44.20;;;;;;5034095;28;20347;-74
2023/05/22 06:32:13;;;;;;;2.35;2.17;;;31.90;43.90;;;;;;5033938;28;20029;-76
2023/05/22 06:34:39;;;;;;;2.17;2.08;;;32.00;43.50;;;;;;5031694;28;20022;-74
2023/05/22 06:37:05;;;;;;;1.90;1.80;;;32.10;43.30;;;;;;5043828;28;20025;-75
2023/05/22 06:39:31;;;;;;;1.75;1.65;;;32.10;43.30;;;;;;5053575;28;20040;-74
2023/05/22 06:41:58;;;;;;;1.73;1.63;;;32.00;43.20;;;;;;5054336;28;20075;-75
2023/05/22 06:44:24;;;;;;;2.13;2.03;;;32.10;43.50;;;;;;5054106;28;20021;-75
2023/05/22 06:46:51;;;;;;;2.38;2.15;;;32.20;43.30;;;;;;5049554;28;20393;-75
2023/05/22 06:49:17;;;;;;;2.17;2.08;;;32.20;43.10;;;;;;5033942;28;20021;-76
2023/05/22 06:51:47;;;;;;;2.47;2.38;;;32.10;43.40;;;;;;5033787;28;20025;-77
2023/05/22 06:54:13;;;;;;;2.70;2.50;;;32.00;43.60;;;;;;5032731;28;20030;-75
2023/05/22 06:56:40;;;;;;;3.05;2.85;;;32.00;42.90;;;;;;5017174;28;20108;-75
2023/05/22 06:59:05;;;;;;;4.15;3.10;;;31.80;43.40;;;;;;5054634;28;20483;-75
2023/05/22 07:01:32;;;;;;;4.22;3.83;;;31.50;43.60;;;;;;5054529;28;20055;-76
2023/05/22 07:04:00;;;;;;;4.20;3.75;;;31.20;44.30;;;;;;5052859;28;20123;-75
2023/05/22 07:06:26;;;;;;;5.20;4.70;;;30.80;44.40;;;;;;5054299;28;20028;-76
2023/05/22 07:08:52;;;;;;;5.18;4.68;;;29.40;45.30;;;;;;5038446;28;20386;-76
2023/05/22 07:11:18;;;;;;;4.88;4.47;;;27.30;48.40;;;;;;5055043;28;20037;-76
2023/05/22 07:13:43;;;;;;;6.38;5.75;;;25.50;51.70;;;;;;5055135;28;20021;-76
2023/05/22 07:16:09;;;;;;;9.02;6.65;;;24.10;55.00;;;;;;5055094;28;20100;-77
2023/05/22 07:18:37;;;;;;;10.13;6.50;;;23.00;58.10;;;;;;5029526;28;20060;-75
2023/05/22 07:21:02;;;;;;;6.82;6.13;;;22.30;60.60;;;;;;5035866;28;20028;-76
2023/05/22 07:23:28;;;;;;;6.57;5.53;;;21.70;62.50;;;;;;5035597;28;20037;-76
2023/05/22 07:25:54;;;;;;;8.82;6.15;;;21.40;63.60;;;;;;5017343;28;20033;-76
2023/05/22 07:28:19;;;;;;;9.40;6.78;;;21.20;64.60;;;;;;5035294;28;20029;-76
2023/05/22 07:30:45;;;;;;;9.43;5.25;;;21.10;65.20;;;;;;5033856;28;20036;-77
2023/05/22 07:33:11;;;;;;;5.70;5.20;;;21.00;66.00;;;;;;5035500;28;20026;-77
2023/05/22 07:35:37;;;;;;;8.32;6.45;;;21.00;67.10;;;;;;5035652;28;20021;-76
2023/05/22 07:38:02;;;;;;;8.35;5.90;;;21.00;66.90;;;;;;5035362;28;20478;-77
2023/05/22 07:40:28;;;;;;;6.47;5.35;;;21.00;67.00;;;;;;5035802;28;20103;-75
2023/05/22 07:42:54;;;;;;;8.80;5.38;;;21.00;67.10;;;;;;5035594;28;20654;-77
2023/05/22 07:45:20;;;;;;;6.35;5.15;;;21.10;67.30;;;;;;5033864;28;20032;-76
2023/05/22 07:47:46;;;;;;;5.65;4.95;;;21.10;67.30;;;;;;5034443;28;20026;-77
2023/05/22 07:50:11;;;;;;;8.35;5.25;;;21.10;67.80;;;;;;5034970;28;20091;-75
2023/05/22 07:52:37;;;;;;;12.13;5.88;;;21.20;67.90;;;;;;5033916;28;20025;-77
2023/05/22 07:55:03;;;;;;;6.85;6.18;;;21.30;67.70;;;;;;5032892;28;20124;-76
2023/05/22 07:57:29;;;;;;;8.25;6.70;;;21.40;67.80;;;;;;5033500;28;20040;-76
2023/05/22 07:59:55;;;;;;;9.25;6.75;;;21.40;67.80;;;;;;5032630;28;20025;-76
2023/05/22 08:02:21;;;;;;;9.48;7.07;;;21.40;67.80;;;;;;5048423;28;20030;-76
2023/05/22 08:04:47;;;;;;;7.00;6.03;;;21.40;68.20;;;;;;5051014;28;20021;-77
2023/05/22 08:07:13;;;;;;;6.93;6.22;;;21.50;68.30;;;;;;5053112;28;20441;-76
2023/05/22 08:09:38;;;;;;;7.57;5.88;;;21.50;68.30;;;;;;5047321;28;20026;-76
2023/05/22 08:12:05;;;;;;;7.10;6.40;;;21.60;68.30;;;;;;5034025;28;20040;-78
2023/05/22 08:14:30;;;;;;;9.45;6.60;;;21.60;68.30;;;;;;5015712;28;20030;-76
2023/05/22 08:16:57;;;;;;;7.18;6.25;;;21.70;68.50;;;;;;5033404;28;20505;-75
2023/05/22 08:19:24;;;;;;;6.50;5.68;;;21.80;68.50;;;;;;5033257;28;20025;-75
2023/05/22 08:21:51;;;;;;;5.85;5.32;;;22.00;68.40;;;;;;5035199;28;20507;-76
2023/05/22 08:24:17;;;;;;;7.10;5.82;;;22.20;68.10;;;;;;5036896;28;20856;-77
2023/05/22 08:26:43;;;;;;;9.02;7.60;;;22.30;67.70;;;;;;5037729;28;20030;-76
2023/05/22 08:29:09;;;;;;;7.80;6.78;;;22.40;67.30;;;;;;5037746;28;20033;-76
2023/05/22 08:31:35;;;;;;;9.23;7.07;;;22.40;67.30;;;;;;5053112;28;20103;-76
2023/05/22 08:34:05;;;;;;;11.23;7.28;;;22.40;67.40;;;;;;5056820;28;20385;-76
2023/05/22 08:36:32;;;;;;;9.13;7.47;;;22.40;67.40;;;;;;5057455;28;20153;-77
2023/05/22 08:38:58;;;;;;;9.02;6.65;;;22.40;67.20;;;;;;5049229;28;20021;-77
2023/05/22 08:41:24;;;;;;;9.77;6.93;;;22.50;67.50;;;;;;5040193;28;20044;-76
2023/05/22 08:43:50;;;;;;;10.63;8.10;;;22.50;67.70;;;;;;5060164;28;20048;-76
2023/05/22 08:46:16;;;;;;;7.13;6.43;;;22.70;67.50;;;;;;5061827;28;20032;-76
2023/05/22 08:48:43;;;;;;;7.07;6.38;;;22.70;67.50;;;;;;5025033;28;20029;-75
2023/05/22 08:51:12;;;;;;;7.30;6.43;;;22.80;67.20;;;;;;5043639;28;20034;-76
2023/05/22 08:53:41;;;;;;;8.00;6.18;;;22.90;66.90;;;;;;5037231;28;20014;-76
2023/05/22 08:56:07;;;;;;;6.85;6.10;;;22.90;66.70;;;;;;5039787;28;20060;-76
2023/05/22 08:58:37;;;;;;;10.13;7.13;;;23.00;66.80;;;;;;5039144;28;20029;-76
2023/05/22 09:01:04;;;;;;;8.15;7.30;;;23.10;66.60;;;;;;5055074;28;20060;-76
2023/05/22 09:03:31;;;;;;;7.15;6.40;;;23.20;66.20;;;;;;5038737;28;20028;-77
2023/05/22 09:05:58;;;;;;;7.28;6.57;;;23.30;66.30;;;;;;5021040;28;20029;-77
2023/05/22 09:08:24;;;;;;;14.57;7.90;;;23.40;66.10;;;;;;5039047;28;20017;-76
2023/05/22 09:10:50;;;;;;;8.45;7.20;;;23.60;65.70;;;;;;5039019;28;20449;-76
2023/05/22 09:13:26;;;;;;;6.70;6.00;;;23.70;65.70;;;;;;5037362;28;20048;-76
2023/05/22 09:15:52;;;;;;;6.70;6.07;;;23.80;65.90;;;;;;5037143;28;20123;-76
2023/05/22 09:18:18;;;;;;;9.70;7.00;;;24.00;65.30;;;;;;5037985;28;20516;-75
2023/05/22 09:20:44;;;;;;;5.85;5.35;;;24.20;63.80;;;;;;5032768;28;20053;-76
2023/05/22 09:23:11;;;;;;;6.32;5.72;;;24.20;64.10;;;;;;5058643;28;20108;-76
2023/05/22 09:25:36;;;;;;;7.00;6.30;;;24.30;63.90;;;;;;5039901;28;20031;-76
2023/05/22 09:28:03;;;;;;;5.97;5.47;;;24.40;63.50;;;;;;5040025;28;20085;-75
2023/05/22 09:30:33;;;;;;;7.38;6.15;;;24.60;63.10;;;;;;5033878;28;20030;-74
2023/05/22 09:32:59;;;;;;;6.80;6.20;;;24.80;62.90;;;;;;5037282;28;20029;-77
2023/05/22 09:35:26;;;;;;;6.47;5.88;;;24.80;62.10;;;;;;5043678;28;20070;-74
2023/05/22 09:37:54;;;;;;;11.48;7.05;;;24.80;62.20;;;;;;5040229;28;20022;-75
2023/05/22 09:40:21;;;;;;;8.15;6.85;;;24.80;62.30;;;;;;5037838;28;20502;-76
2023/05/22 09:42:46;;;;;;;7.60;6.90;;;24.90;61.70;;;;;;5020402;28;20037;-74
2023/05/22 09:45:12;;;;;;;6.75;6.15;;;24.90;60.80;;;;;;5038217;28;20025;-75
2023/05/22 09:47:39;;;;;;;8.43;6.97;;;24.90;61.40;;;;;;5037460;28;20079;-76
2023/05/22 09:50:09;;;;;;;6.78;6.18;;;25.10;60.70;;;;;;5037104;28;20025;-76
2023/05/22 09:52:36;;;;;;;6.72;6.13;;;25.20;60.60;;;;;;5039074;28;20017;-76
2023/05/22 09:55:06;;;;;;;6.47;5.88;;;25.30;60.70;;;;;;5057520;28;20056;-76
2023/05/22 09:57:40;;;;;;;6.10;5.50;;;25.40;60.30;;;;;;5039002;28;20036;-75
2023/05/22 10:00:11;;;;;;;8.25;7.18;;;25.60;60.10;;;;;;5057434;28;20657;-74
2023/05/22 10:02:40;;;;;;;7.87;6.20;;;25.70;59.30;;;;;;5055906;28;20382;-75
2023/05/22 10:05:09;;;;;;;8.93;8.02;;;25.60;59.60;;;;;;5038704;28;20025;-76
2023/05/22 10:07:38;;;;;;;7.38;6.65;;;25.60;59.40;;;;;;5057617;28;20055;-75
2023/05/22 10:10:10;;;;;;;7.60;6.05;;;25.70;59.80;;;;;;5056581;28;20082;-75
2023/05/22 10:12:50;;;;;;;7.47;6.75;;;25.80;59.60;;;;;;5047493;28;20123;-75
2023/05/22 10:15:16;;;;;;;11.43;7.20;;;25.90;59.30;;;;;;5037445;28;20036;-76
2023/05/22 10:17:43;;;;;;;7.97;7.00;;;25.80;59.20;;;;;;5050179;28;20643;-75
2023/05/22 10:20:11;;;;;;;6.45;5.85;;;25.70;59.60;;;;;;5036565;28;20052;-75
2023/05/22 10:22:37;;;;;;;8.43;7.43;;;25.90;59.70;;;;;;5047027;28;20029;-76
2023/05/22 10:25:04;;;;;;;8.20;7.45;;;26.10;59.20;;;;;;5055329;28;20043;-76
2023/05/22 10:27:30;;;;;;;7.53;6.82;;;26.20;59.60;;;;;;5038125;28;20028;-76
2023/05/22 10:30:08;;;;;;;6.50;5.90;;;26.10;59.80;;;;;;5055247;28;20029;-75
2023/05/22 10:32:45;;;;;;;11.15;8.07;;;26.20;59.90;;;;;;5037870;28;20068;-76
2023/05/22 10:35:24;;;;;;;7.05;6.35;;;26.30;59.30;;;;;;5057333;28;20108;-77
2023/05/22 10:37:52;;;;;;;8.65;7.07;;;26.50;59.30;;;;;;5056552;28;20032;-76
2023/05/22 10:40:36;;;;;;;10.07;8.65;;;26.60;58.70;;;;;;5037357;28;20064;-77
2023/05/22 10:43:02;;;;;;;8.02;7.22;;;26.60;58.10;;;;;;5047155;28;20033;-77
2023/05/22 10:45:29;;;;;;;10.48;8.27;;;26.40;58.60;;;;;;5034694;28;20029;-76
2023/05/22 10:48:06;;;;;;;7.82;7.05;;;26.20;59.00;;;;;;5018024;28;20356;-76
2023/05/22 10:50:32;;;;;;;7.00;6.40;;;26.00;59.90;;;;;;5036081;28;20029;-75
2023/05/22 10:53:30;;;;;;;6.15;5.55;;;26.20;60.30;;;;;;5035830;28;20036;-76
2023/05/22 10:56:01;;;;;;;8.50;7.40;;;26.60;59.50;;;;;;5016563;28;20148;-76
2023/05/22 10:58:29;;;;;;;7.65;6.95;;;26.90;58.20;;;;;;5017323;28;20018;-76
2023/05/22 11:01:16;;;;;;;7.40;6.63;;;27.10;58.30;;;;;;4998858;28;20030;-77
2023/05/22 11:04:11;;;;;;;8.57;7.78;;;27.30;57.70;;;;;;5032795;28;20036;-78
2023/05/22 11:07:05;;;;;;;8.00;7.13;;;27.30;57.10;;;;;;5054371;28;20021;-76
2023/05/22 11:09:47;;;;;;;10.68;8.00;;;27.10;57.50;;;;;;5055309;28;20020;-77
2023/05/22 11:12:19;;;;;;;;;;;27.10;58.20;;;;;;5055731;28;20079;-75
2023/05/22 11:14:57;;;;;;;9.70;7.22;;;27.20;58.40;;;;;;5040973;28;19909;-76
2023/05/22 11:17:27;;;;;;;8.45;7.20;;;27.30;57.60;;;;;;5052195;28;20025;-76
2023/05/22 11:19:59;;;;;;;8.15;6.88;;;27.30;57.10;;;;;;5019527;28;20021;-77
2023/05/22 11:22:40;;;;;;;7.00;6.25;;;27.20;57.10;;;;;;5041773;28;20069;-76
2023/05/22 11:25:16;;;;;;;10.82;8.63;;;27.40;57.20;;;;;;5050950;28;20037;-76
2023/05/22 11:27:43;;;;;;;7.60;6.90;;;27.50;56.10;;;;;;5049468;28;20017;-75
2023/05/22 11:30:10;;;;;;;7.30;6.70;;;27.50;56.40;;;;;;5050475;28;20029;-75
2023/05/22 11:32:42;;;;;;;7.05;6.43;;;27.30;56.70;;;;;;5040059;28;20028;-77
2023/05/22 11:35:12;;;;;;;6.72;6.03;;;27.30;56.90;;;;;;5053016;28;20656;-77
2023/05/22 11:37:39;;;;;;;7.13;6.47;;;27.40;57.10;;;;;;5061068;28;20364;-77
2023/05/22 11:40:05;;;;;;;8.52;7.72;;;27.40;56.70;;;;;;5055948;28;20477;-74
2023/05/22 11:42:31;;;;;;;8.63;7.82;;;27.40;56.30;;;;;;5056635;28;20064;-76
2023/05/22 11:44:58;;;;;;;8.10;7.40;;;27.40;56.30;;;;;;5042819;28;20123;-75
2023/05/22 11:47:30;;;;;;;7.03;6.32;;;27.30;56.70;;;;;;5017585;28;20018;-76
2023/05/22 11:49:56;;;;;;;7.22;6.40;;;27.40;56.70;;;;;;5035386;28;20049;-76
2023/05/22 11:52:31;;;;;;;9.40;6.55;;;27.50;56.30;;;;;;5027543;28;20021;-78
2023/05/22 11:54:56;;;;;;;8.20;7.40;;;27.50;56.50;;;;;;5035471;28;20029;-76
2023/05/22 11:57:22;;;;;;;7.88;7.18;;;27.80;55.90;;;;;;5038202;28;20048;-77
2023/05/22 11:59:51;;;;;;;9.32;6.30;;;27.70;55.70;;;;;;5041033;28;20470;-77
2023/05/22 12:02:18;;;;;;;6.85;6.25;;;27.70;55.80;;;;;;5040484;28;20013;-77
2023/05/22 12:04:44;;;;;;;8.65;7.30;;;27.80;55.50;;;;;;5038623;28;20085;-77
2023/05/22 12:07:10;;;;;;;8.80;8.00;;;27.80;55.30;;;;;;5039824;28;20036;-76
2023/05/22 12:09:39;;;;;;;7.32;6.65;;;27.90;54.70;;;;;;5058240;28;20021;-74
2023/05/22 12:12:05;;;;;;;8.18;7.38;;;27.90;54.60;;;;;;5056826;28;20462;-75
2023/05/22 12:14:31;;;;;;;11.35;7.95;;;27.80;54.70;;;;;;5057197;28;20025;-76
2023/05/22 12:17:03;;;;;;;8.82;7.90;;;27.90;54.60;;;;;;5047917;28;20025;-77
2023/05/22 12:19:28;;;;;;;8.18;7.43;;;27.80;54.50;;;;;;5046124;28;20024;-77
2023/05/22 12:21:54;;;;;;;7.50;6.82;;;27.70;55.10;;;;;;5040301;28;20079;-76
2023/05/22 12:24:22;;;;;;;9.82;7.90;;;27.80;54.90;;;;;;5037826;28;20426;-77
2023/05/22 12:26:52;;;;;;;8.73;7.93;;;27.80;54.20;;;;;;5039103;28;20053;-76
2023/05/22 12:29:18;;;;;;;7.68;6.97;;;27.80;54.00;;;;;;5040219;28;20036;-77
2023/05/22 12:31:47;;;;;;;7.30;6.53;;;27.70;54.20;;;;;;5038040;28;20025;-77
2023/05/22 12:34:16;;;;;;;8.07;7.28;;;27.70;54.20;;;;;;5038129;28;20104;-76
2023/05/22 12:36:44;;;;;;;7.63;6.93;;;27.80;53.80;;;;;;5045908;28;20135;-75
2023/05/22 12:39:17;;;;;;;7.55;6.75;;;27.80;53.70;;;;;;5046653;28;20673;-76
2023/05/22 12:41:44;;;;;;;7.35;6.65;;;27.90;53.50;;;;;;5038174;28;20044;-77
2023/05/22 12:44:10;;;;;;;8.38;7.53;;;28.00;52.70;;;;;;5019001;28;20067;-76
2023/05/22 12:46:37;;;;;;;8.25;6.93;;;28.00;52.90;;;;;;5005988;28;20025;-77
2023/05/22 12:49:03;;;;;;;10.43;7.10;;;28.00;53.10;;;;;;5039427;28;20028;-77
2023/05/22 12:51:31;;;;;;;7.38;6.68;;;28.30;52.40;;;;;;5038721;28;20105;-77